sensor_id;sensor_type;location;lat;lon;timestamp;P1;durP1;ratioP1;P2;durP2;ratioP2
60847;SDS011;46681;47.696;9.140;2022-12-20T00:00:13;32.30;;;20.73;;
60847;SDS011;46681;47.696;9.140;2022-12-20T00:02:41;30.60;;;19.57;;
60847;SDS011;46681;47.696;9.140;2022-12-20T00:05:07;29.50;;;20.03;;
60847;SDS011;46681;47.696;9.140;2022-12-20T00:07:32;28.50;;;18.70;;
60847;SDS011;46681;47.696;9.140;2022-12-20T00:09:58;29.67;;;20.33;;
60847;SDS011;46681;47.696;9.140;2022-12-20T00:12:24;27.17;;;19.40;;
60847;SDS011;46681;47.696;9.140;2022-12-20T00:14:49;31.30;;;19.80;;
60847;SDS011;46681;47.696;9.140;2022-12-20T00:17:15;30.87;;;20.13;;
60847;SDS011;46681;47.696;9.140;2022-12-20T00:19:42;27.90;;;18.93;;
60847;SDS011;46681;47.696;9.140;2022-12-20T00:22:08;28.37;;;19.37;;
60847;SDS011;46681;47.696;9.140;2022-12-20T00:24:33;26.10;;;18.37;;
60847;SDS011;46681;47.696;9.140;2022-12-20T00:26:59;26.80;;;19.33;;
60847;SDS011;46681;47.696;9.140;2022-12-20T00:29:24;28.27;;;19.53;;
60847;SDS011;46681;47.696;9.140;2022-12-20T00:31:50;28.07;;;19.23;;
60847;SDS011;46681;47.696;9.140;2022-12-20T00:34:15;25.27;;;18.43;;
60847;SDS011;46681;47.696;9.140;2022-12-20T00:36:41;27.97;;;18.87;;
60847;SDS011;46681;47.696;9.140;2022-12-20T00:39:06;28.37;;;18.83;;
60847;SDS011;46681;47.696;9.140;2022-12-20T00:41:33;26.80;;;17.87;;
60847;SDS011;46681;47.696;9.140;2022-12-20T00:43:59;26.13;;;18.53;;
60847;SDS011;46681;47.696;9.140;2022-12-20T00:46:27;26.23;;;18.00;;
60847;SDS011;46681;47.696;9.140;2022-12-20T00:48:53;24.83;;;17.30;;
60847;SDS011;46681;47.696;9.140;2022-12-20T00:51:20;26.43;;;18.33;;
60847;SDS011;46681;47.696;9.140;2022-12-20T00:53:50;26.70;;;18.47;;
60847;SDS011;46681;47.696;9.140;2022-12-20T00:56:16;27.93;;;18.50;;
60847;SDS011;46681;47.696;9.140;2022-12-20T00:58:42;27.17;;;17.47;;
60847;SDS011;46681;47.696;9.140;2022-12-20T01:01:24;24.33;;;17.47;;
60847;SDS011;46681;47.696;9.140;2022-12-20T01:03:53;25.03;;;17.57;;
60847;SDS011;46681;47.696;9.140;2022-12-20T01:06:19;25.10;;;18.07;;
60847;SDS011;46681;47.696;9.140;2022-12-20T01:08:45;23.53;;;16.90;;
60847;SDS011;46681;47.696;9.140;2022-12-20T01:11:12;25.40;;;16.73;;
60847;SDS011;46681;47.696;9.140;2022-12-20T01:13:42;22.87;;;16.17;;
60847;SDS011;46681;47.696;9.140;2022-12-20T01:16:11;22.50;;;16.00;;
60847;SDS011;46681;47.696;9.140;2022-12-20T01:18:40;22.50;;;15.87;;
60847;SDS011;46681;47.696;9.140;2022-12-20T01:21:07;22.37;;;16.63;;
60847;SDS011;46681;47.696;9.140;2022-12-20T01:23:34;22.40;;;15.87;;
60847;SDS011;46681;47.696;9.140;2022-12-20T01:26:00;23.33;;;16.67;;
60847;SDS011;46681;47.696;9.140;2022-12-20T01:28:29;23.13;;;16.17;;
60847;SDS011;46681;47.696;9.140;2022-12-20T01:30:58;22.87;;;16.20;;
60847;SDS011;46681;47.696;9.140;2022-12-20T01:33:24;22.20;;;16.00;;
60847;SDS011;46681;47.696;9.140;2022-12-20T01:38:21;20.43;;;15.40;;
60847;SDS011;46681;47.696;9.140;2022-12-20T01:40:46;21.10;;;15.57;;
60847;SDS011;46681;47.696;9.140;2022-12-20T01:43:12;20.83;;;15.40;;
60847;SDS011;46681;47.696;9.140;2022-12-20T01:45:41;20.93;;;15.57;;
60847;SDS011;46681;47.696;9.140;2022-12-20T01:48:08;22.23;;;15.87;;
60847;SDS011;46681;47.696;9.140;2022-12-20T01:50:36;19.97;;;14.97;;
60847;SDS011;46681;47.696;9.140;2022-12-20T01:53:03;21.47;;;15.17;;
60847;SDS011;46681;47.696;9.140;2022-12-20T01:55:33;19.40;;;14.90;;
60847;SDS011;46681;47.696;9.140;2022-12-20T01:58:08;20.93;;;14.27;;
60847;SDS011;46681;47.696;9.140;2022-12-20T02:00:37;21.80;;;15.73;;
60847;SDS011;46681;47.696;9.140;2022-12-20T02:03:04;19.07;;;13.87;;
60847;SDS011;46681;47.696;9.140;2022-12-20T02:05:35;18.93;;;14.37;;
60847;SDS011;46681;47.696;9.140;2022-12-20T02:08:04;21.07;;;14.63;;
60847;SDS011;46681;47.696;9.140;2022-12-20T02:10:48;20.33;;;14.37;;
60847;SDS011;46681;47.696;9.140;2022-12-20T02:16:28;19.03;;;14.13;;
60847;SDS011;46681;47.696;9.140;2022-12-20T02:19:45;22.40;;;15.87;;
60847;SDS011;46681;47.696;9.140;2022-12-20T02:24:59;19.77;;;15.00;;
60847;SDS011;46681;47.696;9.140;2022-12-20T02:27:38;19.80;;;14.07;;
60847;SDS011;46681;47.696;9.140;2022-12-20T02:30:20;20.47;;;14.13;;
60847;SDS011;46681;47.696;9.140;2022-12-20T02:32:48;19.30;;;14.07;;
60847;SDS011;46681;47.696;9.140;2022-12-20T02:35:21;17.87;;;13.30;;
60847;SDS011;46681;47.696;9.140;2022-12-20T02:37:51;19.60;;;14.37;;
60847;SDS011;46681;47.696;9.140;2022-12-20T02:40:20;19.23;;;13.87;;
60847;SDS011;46681;47.696;9.140;2022-12-20T02:42:50;19.13;;;14.63;;
60847;SDS011;46681;47.696;9.140;2022-12-20T02:45:19;21.47;;;14.03;;
60847;SDS011;46681;47.696;9.140;2022-12-20T02:47:51;17.50;;;13.60;;
60847;SDS011;46681;47.696;9.140;2022-12-20T02:50:22;17.43;;;13.57;;
60847;SDS011;46681;47.696;9.140;2022-12-20T02:52:53;18.70;;;13.67;;
60847;SDS011;46681;47.696;9.140;2022-12-20T02:55:19;19.63;;;14.33;;
60847;SDS011;46681;47.696;9.140;2022-12-20T02:57:58;20.70;;;14.27;;
60847;SDS011;46681;47.696;9.140;2022-12-20T03:00:31;22.50;;;15.40;;
60847;SDS011;46681;47.696;9.140;2022-12-20T03:03:00;19.53;;;14.17;;
60847;SDS011;46681;47.696;9.140;2022-12-20T03:08:03;19.37;;;14.43;;
60847;SDS011;46681;47.696;9.140;2022-12-20T03:10:29;17.63;;;12.80;;
60847;SDS011;46681;47.696;9.140;2022-12-20T03:12:55;18.73;;;13.33;;
60847;SDS011;46681;47.696;9.140;2022-12-20T03:15:20;19.97;;;14.33;;
60847;SDS011;46681;47.696;9.140;2022-12-20T03:17:46;17.20;;;13.23;;
60847;SDS011;46681;47.696;9.140;2022-12-20T03:20:11;19.43;;;13.73;;
60847;SDS011;46681;47.696;9.140;2022-12-20T03:22:39;19.90;;;14.20;;
60847;SDS011;46681;47.696;9.140;2022-12-20T03:25:05;19.80;;;13.27;;
60847;SDS011;46681;47.696;9.140;2022-12-20T03:27:30;20.57;;;14.20;;
60847;SDS011;46681;47.696;9.140;2022-12-20T03:29:56;19.23;;;14.37;;
60847;SDS011;46681;47.696;9.140;2022-12-20T03:32:22;20.87;;;13.87;;
60847;SDS011;46681;47.696;9.140;2022-12-20T03:34:47;19.40;;;13.93;;
60847;SDS011;46681;47.696;9.140;2022-12-20T03:37:12;20.97;;;14.50;;
60847;SDS011;46681;47.696;9.140;2022-12-20T03:39:38;18.23;;;13.37;;
60847;SDS011;46681;47.696;9.140;2022-12-20T03:42:05;21.60;;;14.10;;
60847;SDS011;46681;47.696;9.140;2022-12-20T03:44:30;19.40;;;13.43;;
60847;SDS011;46681;47.696;9.140;2022-12-20T03:46:55;21.03;;;14.07;;
60847;SDS011;46681;47.696;9.140;2022-12-20T03:49:21;21.67;;;14.47;;
60847;SDS011;46681;47.696;9.140;2022-12-20T03:51:47;20.97;;;14.80;;
60847;SDS011;46681;47.696;9.140;2022-12-20T03:54:13;22.27;;;14.87;;
60847;SDS011;46681;47.696;9.140;2022-12-20T03:56:38;20.60;;;13.80;;
60847;SDS011;46681;47.696;9.140;2022-12-20T03:59:05;19.67;;;13.60;;
60847;SDS011;46681;47.696;9.140;2022-12-20T04:01:31;18.60;;;13.20;;
60847;SDS011;46681;47.696;9.140;2022-12-20T04:03:56;22.37;;;15.27;;
60847;SDS011;46681;47.696;9.140;2022-12-20T04:06:22;21.60;;;14.17;;
60847;SDS011;46681;47.696;9.140;2022-12-20T04:08:50;19.30;;;12.33;;
60847;SDS011;46681;47.696;9.140;2022-12-20T04:11:16;20.67;;;14.10;;
60847;SDS011;46681;47.696;9.140;2022-12-20T04:13:51;23.37;;;14.73;;
60847;SDS011;46681;47.696;9.140;2022-12-20T04:16:19;20.60;;;13.97;;
60847;SDS011;46681;47.696;9.140;2022-12-20T04:18:46;20.87;;;14.50;;
60847;SDS011;46681;47.696;9.140;2022-12-20T04:21:12;22.53;;;14.13;;
60847;SDS011;46681;47.696;9.140;2022-12-20T04:23:38;24.83;;;15.47;;
60847;SDS011;46681;47.696;9.140;2022-12-20T04:26:06;24.30;;;14.93;;
60847;SDS011;46681;47.696;9.140;2022-12-20T04:28:33;22.00;;;14.67;;
60847;SDS011;46681;47.696;9.140;2022-12-20T04:30:59;25.57;;;15.00;;
60847;SDS011;46681;47.696;9.140;2022-12-20T04:33:25;25.30;;;14.37;;
60847;SDS011;46681;47.696;9.140;2022-12-20T04:35:51;23.93;;;15.63;;
60847;SDS011;46681;47.696;9.140;2022-12-20T04:38:19;24.33;;;15.07;;
60847;SDS011;46681;47.696;9.140;2022-12-20T04:40:48;23.77;;;14.87;;
60847;SDS011;46681;47.696;9.140;2022-12-20T04:43:15;24.03;;;14.93;;
60847;SDS011;46681;47.696;9.140;2022-12-20T04:45:42;25.10;;;15.97;;
60847;SDS011;46681;47.696;9.140;2022-12-20T04:48:10;27.53;;;16.20;;
60847;SDS011;46681;47.696;9.140;2022-12-20T04:50:35;27.47;;;16.47;;
60847;SDS011;46681;47.696;9.140;2022-12-20T04:53:01;24.17;;;16.20;;
60847;SDS011;46681;47.696;9.140;2022-12-20T04:55:27;29.17;;;16.77;;
60847;SDS011;46681;47.696;9.140;2022-12-20T04:57:52;25.80;;;16.67;;
60847;SDS011;46681;47.696;9.140;2022-12-20T05:00:18;29.40;;;16.93;;
60847;SDS011;46681;47.696;9.140;2022-12-20T05:02:44;27.43;;;16.77;;
60847;SDS011;46681;47.696;9.140;2022-12-20T05:05:12;28.97;;;18.03;;
60847;SDS011;46681;47.696;9.140;2022-12-20T05:07:38;28.63;;;17.43;;
60847;SDS011;46681;47.696;9.140;2022-12-20T05:10:06;26.67;;;16.30;;
60847;SDS011;46681;47.696;9.140;2022-12-20T05:12:32;29.93;;;16.87;;
60847;SDS011;46681;47.696;9.140;2022-12-20T05:14:57;27.67;;;17.57;;
60847;SDS011;46681;47.696;9.140;2022-12-20T05:17:24;29.13;;;18.30;;
60847;SDS011;46681;47.696;9.140;2022-12-20T05:19:49;29.13;;;17.87;;
60847;SDS011;46681;47.696;9.140;2022-12-20T05:22:16;27.50;;;17.43;;
60847;SDS011;46681;47.696;9.140;2022-12-20T05:24:42;23.50;;;15.60;;
60847;SDS011;46681;47.696;9.140;2022-12-20T05:27:09;25.13;;;15.60;;
60847;SDS011;46681;47.696;9.140;2022-12-20T05:29:34;24.37;;;16.40;;
60847;SDS011;46681;47.696;9.140;2022-12-20T05:32:01;23.37;;;16.20;;
60847;SDS011;46681;47.696;9.140;2022-12-20T05:34:27;25.33;;;16.47;;
60847;SDS011;46681;47.696;9.140;2022-12-20T05:36:53;25.57;;;17.03;;
60847;SDS011;46681;47.696;9.140;2022-12-20T05:39:18;24.67;;;16.17;;
60847;SDS011;46681;47.696;9.140;2022-12-20T05:41:44;22.80;;;15.23;;
60847;SDS011;46681;47.696;9.140;2022-12-20T05:44:11;28.57;;;16.77;;
60847;SDS011;46681;47.696;9.140;2022-12-20T05:46:36;23.43;;;16.07;;
60847;SDS011;46681;47.696;9.140;2022-12-20T05:49:02;22.53;;;15.50;;
60847;SDS011;46681;47.696;9.140;2022-12-20T05:51:27;22.03;;;14.17;;
60847;SDS011;46681;47.696;9.140;2022-12-20T05:53:55;21.60;;;14.07;;
60847;SDS011;46681;47.696;9.140;2022-12-20T05:56:21;19.73;;;14.07;;
60847;SDS011;46681;47.696;9.140;2022-12-20T05:58:47;20.70;;;14.13;;
60847;SDS011;46681;47.696;9.140;2022-12-20T06:01:12;19.73;;;13.77;;
60847;SDS011;46681;47.696;9.140;2022-12-20T06:03:38;19.80;;;13.50;;
60847;SDS011;46681;47.696;9.140;2022-12-20T06:06:04;20.50;;;13.77;;
60847;SDS011;46681;47.696;9.140;2022-12-20T06:08:30;20.00;;;13.67;;
60847;SDS011;46681;47.696;9.140;2022-12-20T06:10:56;20.27;;;13.63;;
60847;SDS011;46681;47.696;9.140;2022-12-20T06:13:22;19.27;;;13.80;;
60847;SDS011;46681;47.696;9.140;2022-12-20T06:15:49;19.33;;;13.30;;
60847;SDS011;46681;47.696;9.140;2022-12-20T06:18:15;19.13;;;13.23;;
60847;SDS011;46681;47.696;9.140;2022-12-20T06:20:42;21.63;;;13.93;;
60847;SDS011;46681;47.696;9.140;2022-12-20T06:23:17;20.60;;;13.50;;
60847;SDS011;46681;47.696;9.140;2022-12-20T06:25:45;18.70;;;13.23;;
60847;SDS011;46681;47.696;9.140;2022-12-20T06:28:12;17.17;;;12.07;;
60847;SDS011;46681;47.696;9.140;2022-12-20T06:30:38;16.07;;;12.00;;
60847;SDS011;46681;47.696;9.140;2022-12-20T06:33:03;18.90;;;12.87;;
60847;SDS011;46681;47.696;9.140;2022-12-20T06:35:31;19.60;;;13.53;;
60847;SDS011;46681;47.696;9.140;2022-12-20T06:37:56;20.37;;;13.60;;
60847;SDS011;46681;47.696;9.140;2022-12-20T06:40:24;19.30;;;12.70;;
60847;SDS011;46681;47.696;9.140;2022-12-20T06:42:51;19.20;;;13.03;;
60847;SDS011;46681;47.696;9.140;2022-12-20T06:45:16;21.23;;;13.13;;
60847;SDS011;46681;47.696;9.140;2022-12-20T06:47:48;20.47;;;14.63;;
60847;SDS011;46681;47.696;9.140;2022-12-20T06:50:23;17.60;;;13.33;;
60847;SDS011;46681;47.696;9.140;2022-12-20T06:52:50;20.97;;;13.70;;
60847;SDS011;46681;47.696;9.140;2022-12-20T06:55:17;19.20;;;13.47;;
60847;SDS011;46681;47.696;9.140;2022-12-20T06:57:43;17.80;;;12.83;;
60847;SDS011;46681;47.696;9.140;2022-12-20T07:00:09;17.97;;;13.03;;
60847;SDS011;46681;47.696;9.140;2022-12-20T07:02:37;21.57;;;13.77;;
60847;SDS011;46681;47.696;9.140;2022-12-20T07:05:04;19.70;;;13.77;;
60847;SDS011;46681;47.696;9.140;2022-12-20T07:07:31;16.97;;;13.23;;
60847;SDS011;46681;47.696;9.140;2022-12-20T07:09:57;17.70;;;13.13;;
60847;SDS011;46681;47.696;9.140;2022-12-20T07:12:23;18.27;;;12.87;;
60847;SDS011;46681;47.696;9.140;2022-12-20T07:14:49;16.30;;;12.53;;
60847;SDS011;46681;47.696;9.140;2022-12-20T07:17:19;19.43;;;13.67;;
60847;SDS011;46681;47.696;9.140;2022-12-20T07:19:49;21.67;;;14.03;;
60847;SDS011;46681;47.696;9.140;2022-12-20T07:22:17;19.07;;;13.87;;
60847;SDS011;46681;47.696;9.140;2022-12-20T07:24:45;20.57;;;14.50;;
60847;SDS011;46681;47.696;9.140;2022-12-20T07:27:17;18.47;;;13.17;;
60847;SDS011;46681;47.696;9.140;2022-12-20T07:29:43;19.53;;;14.17;;
60847;SDS011;46681;47.696;9.140;2022-12-20T07:32:10;20.00;;;14.43;;
60847;SDS011;46681;47.696;9.140;2022-12-20T07:34:36;20.13;;;13.90;;
60847;SDS011;46681;47.696;9.140;2022-12-20T07:37:04;20.17;;;14.27;;
60847;SDS011;46681;47.696;9.140;2022-12-20T07:39:29;20.43;;;14.53;;
60847;SDS011;46681;47.696;9.140;2022-12-20T07:41:59;18.43;;;13.50;;
60847;SDS011;46681;47.696;9.140;2022-12-20T07:44:28;16.77;;;13.47;;
60847;SDS011;46681;47.696;9.140;2022-12-20T07:46:56;20.17;;;14.87;;
60847;SDS011;46681;47.696;9.140;2022-12-20T07:49:22;17.07;;;12.57;;
60847;SDS011;46681;47.696;9.140;2022-12-20T07:51:49;20.00;;;13.70;;
60847;SDS011;46681;47.696;9.140;2022-12-20T07:54:19;19.60;;;14.17;;
60847;SDS011;46681;47.696;9.140;2022-12-20T07:56:53;18.97;;;13.37;;
60847;SDS011;46681;47.696;9.140;2022-12-20T07:59:25;18.93;;;13.53;;
60847;SDS011;46681;47.696;9.140;2022-12-20T08:01:59;19.77;;;14.37;;
60847;SDS011;46681;47.696;9.140;2022-12-20T08:04:27;20.43;;;14.30;;
60847;SDS011;46681;47.696;9.140;2022-12-20T08:06:55;16.97;;;12.80;;
60847;SDS011;46681;47.696;9.140;2022-12-20T08:09:24;18.93;;;13.27;;
60847;SDS011;46681;47.696;9.140;2022-12-20T08:12:00;19.13;;;13.17;;
60847;SDS011;46681;47.696;9.140;2022-12-20T08:14:29;19.47;;;14.20;;
60847;SDS011;46681;47.696;9.140;2022-12-20T08:17:01;17.57;;;13.17;;
60847;SDS011;46681;47.696;9.140;2022-12-20T08:19:26;16.10;;;12.30;;
60847;SDS011;46681;47.696;9.140;2022-12-20T08:21:55;17.97;;;13.53;;
60847;SDS011;46681;47.696;9.140;2022-12-20T08:24:22;19.70;;;13.40;;
60847;SDS011;46681;47.696;9.140;2022-12-20T08:26:52;18.23;;;12.83;;
60847;SDS011;46681;47.696;9.140;2022-12-20T08:29:17;18.77;;;12.80;;
60847;SDS011;46681;47.696;9.140;2022-12-20T08:31:44;18.40;;;13.27;;
60847;SDS011;46681;47.696;9.140;2022-12-20T08:34:13;16.37;;;13.20;;
60847;SDS011;46681;47.696;9.140;2022-12-20T08:36:42;18.63;;;13.10;;
60847;SDS011;46681;47.696;9.140;2022-12-20T08:39:18;16.93;;;12.80;;
60847;SDS011;46681;47.696;9.140;2022-12-20T08:41:44;18.93;;;13.50;;
60847;SDS011;46681;47.696;9.140;2022-12-20T08:44:10;16.27;;;12.67;;
60847;SDS011;46681;47.696;9.140;2022-12-20T08:46:37;17.77;;;12.90;;
60847;SDS011;46681;47.696;9.140;2022-12-20T08:49:05;15.23;;;11.83;;
60847;SDS011;46681;47.696;9.140;2022-12-20T08:51:31;16.93;;;12.53;;
60847;SDS011;46681;47.696;9.140;2022-12-20T08:53:58;17.67;;;12.93;;
60847;SDS011;46681;47.696;9.140;2022-12-20T08:56:23;17.60;;;13.67;;
60847;SDS011;46681;47.696;9.140;2022-12-20T08:58:51;17.50;;;12.70;;
60847;SDS011;46681;47.696;9.140;2022-12-20T09:01:19;16.80;;;12.73;;
60847;SDS011;46681;47.696;9.140;2022-12-20T09:03:50;17.77;;;13.60;;
60847;SDS011;46681;47.696;9.140;2022-12-20T09:06:21;18.67;;;13.13;;
60847;SDS011;46681;47.696;9.140;2022-12-20T09:08:51;22.37;;;14.40;;
60847;SDS011;46681;47.696;9.140;2022-12-20T09:11:18;18.43;;;13.37;;
60847;SDS011;46681;47.696;9.140;2022-12-20T09:13:49;15.90;;;12.77;;
60847;SDS011;46681;47.696;9.140;2022-12-20T09:16:20;17.57;;;13.27;;
60847;SDS011;46681;47.696;9.140;2022-12-20T09:18:51;16.53;;;12.70;;
60847;SDS011;46681;47.696;9.140;2022-12-20T09:21:24;21.47;;;13.77;;
60847;SDS011;46681;47.696;9.140;2022-12-20T09:23:52;18.47;;;13.10;;
60847;SDS011;46681;47.696;9.140;2022-12-20T09:26:21;19.67;;;12.77;;
60847;SDS011;46681;47.696;9.140;2022-12-20T09:28:53;16.77;;;12.67;;
60847;SDS011;46681;47.696;9.140;2022-12-20T09:31:24;19.17;;;14.20;;
60847;SDS011;46681;47.696;9.140;2022-12-20T09:33:54;18.20;;;13.57;;
60847;SDS011;46681;47.696;9.140;2022-12-20T09:36:22;17.03;;;12.90;;
60847;SDS011;46681;47.696;9.140;2022-12-20T09:38:49;20.70;;;14.20;;
60847;SDS011;46681;47.696;9.140;2022-12-20T09:43:50;19.80;;;13.73;;
60847;SDS011;46681;47.696;9.140;2022-12-20T09:46:16;20.87;;;14.67;;
60847;SDS011;46681;47.696;9.140;2022-12-20T09:48:42;18.57;;;12.80;;
60847;SDS011;46681;47.696;9.140;2022-12-20T09:56:36;23.00;;;14.80;;
60847;SDS011;46681;47.696;9.140;2022-12-20T09:59:14;20.23;;;14.67;;
60847;SDS011;46681;47.696;9.140;2022-12-20T10:01:46;22.20;;;15.80;;
60847;SDS011;46681;47.696;9.140;2022-12-20T10:12:33;22.00;;;15.03;;
60847;SDS011;46681;47.696;9.140;2022-12-20T10:15:21;23.20;;;15.27;;
60847;SDS011;46681;47.696;9.140;2022-12-20T10:21:07;24.87;;;16.20;;
60847;SDS011;46681;47.696;9.140;2022-12-20T10:23:59;25.13;;;15.50;;
60847;SDS011;46681;47.696;9.140;2022-12-20T10:26:31;23.53;;;16.27;;
60847;SDS011;46681;47.696;9.140;2022-12-20T10:28:59;21.83;;;15.47;;
60847;SDS011;46681;47.696;9.140;2022-12-20T10:31:25;24.00;;;16.73;;
60847;SDS011;46681;47.696;9.140;2022-12-20T10:33:56;24.07;;;16.27;;
60847;SDS011;46681;47.696;9.140;2022-12-20T10:38:54;22.53;;;15.83;;
60847;SDS011;46681;47.696;9.140;2022-12-20T10:46:55;25.30;;;16.63;;
60847;SDS011;46681;47.696;9.140;2022-12-20T10:49:35;25.60;;;17.10;;
60847;SDS011;46681;47.696;9.140;2022-12-20T10:54:34;20.23;;;15.33;;
60847;SDS011;46681;47.696;9.140;2022-12-20T10:57:12;25.50;;;17.47;;
60847;SDS011;46681;47.696;9.140;2022-12-20T11:02:24;24.13;;;15.83;;
60847;SDS011;46681;47.696;9.140;2022-12-20T11:05:43;23.07;;;16.00;;
60847;SDS011;46681;47.696;9.140;2022-12-20T11:10:31;23.90;;;15.37;;
60847;SDS011;46681;47.696;9.140;2022-12-20T11:13:02;25.93;;;17.57;;
60847;SDS011;46681;47.696;9.140;2022-12-20T11:15:29;22.60;;;16.57;;
60847;SDS011;46681;47.696;9.140;2022-12-20T11:18:12;26.07;;;17.13;;
60847;SDS011;46681;47.696;9.140;2022-12-20T11:29:34;23.97;;;16.47;;
60847;SDS011;46681;47.696;9.140;2022-12-20T11:37:27;22.77;;;16.93;;
60847;SDS011;46681;47.696;9.140;2022-12-20T11:51:48;30.87;;;19.57;;
60847;SDS011;46681;47.696;9.140;2022-12-20T11:57:25;47.13;;;27.17;;
60847;SDS011;46681;47.696;9.140;2022-12-20T12:00:11;50.43;;;26.80;;
60847;SDS011;46681;47.696;9.140;2022-12-20T12:02:43;41.37;;;25.13;;
60847;SDS011;46681;47.696;9.140;2022-12-20T12:05:17;46.40;;;25.77;;
60847;SDS011;46681;47.696;9.140;2022-12-20T12:07:55;40.50;;;24.70;;
60847;SDS011;46681;47.696;9.140;2022-12-20T12:10:31;42.40;;;22.77;;
60847;SDS011;46681;47.696;9.140;2022-12-20T12:13:15;35.07;;;23.57;;
60847;SDS011;46681;47.696;9.140;2022-12-20T12:18:32;33.10;;;22.10;;
60847;SDS011;46681;47.696;9.140;2022-12-20T12:21:05;37.77;;;21.20;;
60847;SDS011;46681;47.696;9.140;2022-12-20T12:26:32;29.97;;;20.07;;
60847;SDS011;46681;47.696;9.140;2022-12-20T12:40:32;29.10;;;19.17;;
60847;SDS011;46681;47.696;9.140;2022-12-20T12:46:12;26.70;;;19.40;;
60847;SDS011;46681;47.696;9.140;2022-12-20T12:51:07;25.03;;;18.17;;
60847;SDS011;46681;47.696;9.140;2022-12-20T12:53:41;24.43;;;17.57;;
60847;SDS011;46681;47.696;9.140;2022-12-20T12:56:29;25.00;;;17.00;;
60847;SDS011;46681;47.696;9.140;2022-12-20T13:11:52;23.90;;;18.20;;
60847;SDS011;46681;47.696;9.140;2022-12-20T13:17:37;23.40;;;16.17;;
60847;SDS011;46681;47.696;9.140;2022-12-20T13:19:49;21.87;;;15.73;;
60847;SDS011;46681;47.696;9.140;2022-12-20T13:22:24;22.97;;;17.30;;
60847;SDS011;46681;47.696;9.140;2022-12-20T13:27:26;21.47;;;16.67;;
60847;SDS011;46681;47.696;9.140;2022-12-20T13:38:35;22.43;;;17.53;;
60847;SDS011;46681;47.696;9.140;2022-12-20T13:49:34;20.70;;;16.40;;
60847;SDS011;46681;47.696;9.140;2022-12-20T13:54:53;18.13;;;15.93;;
60847;SDS011;46681;47.696;9.140;2022-12-20T13:57:28;23.93;;;16.33;;
60847;SDS011;46681;47.696;9.140;2022-12-20T14:00:04;21.07;;;16.87;;
60847;SDS011;46681;47.696;9.140;2022-12-20T14:02:50;24.00;;;17.87;;
60847;SDS011;46681;47.696;9.140;2022-12-20T14:05:30;20.57;;;16.37;;
60847;SDS011;46681;47.696;9.140;2022-12-20T14:08:09;21.20;;;17.23;;
60847;SDS011;46681;47.696;9.140;2022-12-20T14:10:44;20.80;;;15.80;;
60847;SDS011;46681;47.696;9.140;2022-12-20T14:13:27;18.13;;;15.47;;
60847;SDS011;46681;47.696;9.140;2022-12-20T14:15:55;19.10;;;14.83;;
60847;SDS011;46681;47.696;9.140;2022-12-20T14:18:31;17.43;;;14.10;;
60847;SDS011;46681;47.696;9.140;2022-12-20T14:21:01;18.47;;;14.73;;
60847;SDS011;46681;47.696;9.140;2022-12-20T14:23:38;19.80;;;14.53;;
60847;SDS011;46681;47.696;9.140;2022-12-20T14:26:09;19.50;;;15.37;;
60847;SDS011;46681;47.696;9.140;2022-12-20T14:28:39;18.13;;;14.57;;
60847;SDS011;46681;47.696;9.140;2022-12-20T14:31:19;24.37;;;15.23;;
60847;SDS011;46681;47.696;9.140;2022-12-20T14:36:47;20.10;;;15.10;;
60847;SDS011;46681;47.696;9.140;2022-12-20T14:39:26;19.30;;;15.37;;
60847;SDS011;46681;47.696;9.140;2022-12-20T14:42:21;20.23;;;16.07;;
60847;SDS011;46681;47.696;9.140;2022-12-20T14:44:49;21.40;;;14.77;;
60847;SDS011;46681;47.696;9.140;2022-12-20T14:47:24;19.07;;;14.97;;
60847;SDS011;46681;47.696;9.140;2022-12-20T14:49:57;19.67;;;15.73;;
60847;SDS011;46681;47.696;9.140;2022-12-20T14:52:49;20.63;;;14.63;;
60847;SDS011;46681;47.696;9.140;2022-12-20T14:55:33;18.13;;;14.40;;
60847;SDS011;46681;47.696;9.140;2022-12-20T15:00:56;18.40;;;14.50;;
60847;SDS011;46681;47.696;9.140;2022-12-20T15:03:52;19.90;;;14.60;;
60847;SDS011;46681;47.696;9.140;2022-12-20T15:06:32;18.53;;;14.47;;
60847;SDS011;46681;47.696;9.140;2022-12-20T15:09:05;20.27;;;14.93;;
60847;SDS011;46681;47.696;9.140;2022-12-20T15:11:32;19.10;;;14.53;;
60847;SDS011;46681;47.696;9.140;2022-12-20T15:14:15;16.57;;;13.60;;
60847;SDS011;46681;47.696;9.140;2022-12-20T15:16:48;17.93;;;13.67;;
60847;SDS011;46681;47.696;9.140;2022-12-20T15:19:17;16.33;;;13.10;;
60847;SDS011;46681;47.696;9.140;2022-12-20T15:21:48;17.07;;;13.93;;
60847;SDS011;46681;47.696;9.140;2022-12-20T15:24:25;17.63;;;14.17;;
60847;SDS011;46681;47.696;9.140;2022-12-20T15:26:57;15.20;;;13.17;;
60847;SDS011;46681;47.696;9.140;2022-12-20T15:29:27;14.23;;;12.30;;
60847;SDS011;46681;47.696;9.140;2022-12-20T15:34:39;15.60;;;13.07;;
60847;SDS011;46681;47.696;9.140;2022-12-20T15:37:13;16.63;;;12.83;;
60847;SDS011;46681;47.696;9.140;2022-12-20T15:39:42;13.23;;;11.70;;
60847;SDS011;46681;47.696;9.140;2022-12-20T15:42:09;14.50;;;12.27;;
60847;SDS011;46681;47.696;9.140;2022-12-20T15:44:42;15.87;;;13.27;;
60847;SDS011;46681;47.696;9.140;2022-12-20T15:47:13;12.87;;;11.47;;
60847;SDS011;46681;47.696;9.140;2022-12-20T15:49:47;15.83;;;12.47;;
60847;SDS011;46681;47.696;9.140;2022-12-20T15:52:21;14.37;;;12.77;;
60847;SDS011;46681;47.696;9.140;2022-12-20T15:54:53;13.97;;;12.07;;
60847;SDS011;46681;47.696;9.140;2022-12-20T15:57:20;14.77;;;12.07;;
60847;SDS011;46681;47.696;9.140;2022-12-20T15:59:54;15.67;;;12.00;;
60847;SDS011;46681;47.696;9.140;2022-12-20T16:02:25;14.33;;;11.83;;
60847;SDS011;46681;47.696;9.140;2022-12-20T16:04:55;12.50;;;9.60;;
60847;SDS011;46681;47.696;9.140;2022-12-20T16:07:32;17.00;;;14.33;;
60847;SDS011;46681;47.696;9.140;2022-12-20T16:09:58;16.30;;;13.90;;
60847;SDS011;46681;47.696;9.140;2022-12-20T16:12:31;15.97;;;14.07;;
60847;SDS011;46681;47.696;9.140;2022-12-20T16:14:58;16.03;;;14.33;;
60847;SDS011;46681;47.696;9.140;2022-12-20T16:17:29;16.47;;;13.73;;
60847;SDS011;46681;47.696;9.140;2022-12-20T16:19:54;18.80;;;15.10;;
60847;SDS011;46681;47.696;9.140;2022-12-20T16:22:22;16.70;;;14.37;;
60847;SDS011;46681;47.696;9.140;2022-12-20T16:24:56;16.83;;;14.53;;
60847;SDS011;46681;47.696;9.140;2022-12-20T16:27:24;18.73;;;15.03;;
60847;SDS011;46681;47.696;9.140;2022-12-20T16:29:53;17.80;;;15.13;;
60847;SDS011;46681;47.696;9.140;2022-12-20T16:32:22;16.40;;;13.70;;
60847;SDS011;46681;47.696;9.140;2022-12-20T16:34:50;15.07;;;13.50;;
60847;SDS011;46681;47.696;9.140;2022-12-20T16:37:17;16.70;;;13.90;;
60847;SDS011;46681;47.696;9.140;2022-12-20T16:39:43;17.17;;;13.80;;
60847;SDS011;46681;47.696;9.140;2022-12-20T16:42:14;16.40;;;13.70;;
60847;SDS011;46681;47.696;9.140;2022-12-20T16:44:49;16.03;;;13.13;;
60847;SDS011;46681;47.696;9.140;2022-12-20T16:47:20;13.70;;;11.90;;
60847;SDS011;46681;47.696;9.140;2022-12-20T16:49:46;13.30;;;11.93;;
60847;SDS011;46681;47.696;9.140;2022-12-20T16:52:13;14.30;;;11.97;;
60847;SDS011;46681;47.696;9.140;2022-12-20T16:54:41;15.37;;;12.60;;
60847;SDS011;46681;47.696;9.140;2022-12-20T16:57:16;14.07;;;12.40;;
60847;SDS011;46681;47.696;9.140;2022-12-20T16:59:46;17.37;;;13.03;;